Time;durP1;ratioP1;P1;durP2;ratioP2;P2;SDS_P1;SDS_P2;PMS_P1;PMS_P2;Temp;Humidity;BMP_temperature;BMP_pressure;BME280_temperature;BME280_humidity;BME280_pressure;Samples;Min_cycle;Max_cycle;Signal;HPM_P1;HPM_P2
2022/09/29 00:02:15;;;;;;;5.90;3.63;;;;;;;8.16;100.00;99909.00;5039001;28;20032;-67
2022/09/29 00:04:41;;;;;;;5.22;3.20;;;;;;;8.18;100.00;99896.78;5052221;28;20032;-67
2022/09/29 00:07:06;;;;;;;9.75;3.53;;;;;;;8.18;100.00;99907.25;5047718;28;20079;-67
2022/09/29 00:09:31;;;;;;;6.30;3.42;;;;;;;8.18;100.00;99897.69;5048390;28;20029;-67
2022/09/29 00:11:57;;;;;;;6.25;3.90;;;;;;;8.16;100.00;99895.91;5068032;28;20068;-67
2022/09/29 00:14:23;;;;;;;5.30;3.22;;;;;;;8.10;100.00;99908.06;5053998;28;20384;-67
2022/09/29 00:16:49;;;;;;;5.32;3.47;;;;;;;8.06;100.00;99906.25;5077167;28;20020;-67
2022/09/29 00:19:15;;;;;;;6.47;3.17;;;;;;;8.06;100.00;99901.03;5084684;28;20034;-66
2022/09/29 00:21:40;;;;;;;4.35;3.33;;;;;;;8.08;100.00;99901.94;5073564;28;20388;-67
2022/09/29 00:24:06;;;;;;;6.53;4.05;;;;;;;8.08;100.00;99901.94;5070320;28;20472;-67
2022/09/29 00:26:31;;;;;;;4.38;3.38;;;;;;;8.13;100.00;99907.22;5080546;28;20036;-67
2022/09/29 00:28:57;;;;;;;6.97;3.08;;;;;;;8.10;100.00;99908.06;5087432;28;20033;-67
2022/09/29 00:31:28;;;;;;;4.13;2.85;;;;;;;8.10;100.00;99910.69;5080362;28;20024;-67
2022/09/29 00:33:54;;;;;;;5.60;3.10;;;;;;;8.07;100.00;99912.38;5086489;28;20056;-67
2022/09/29 00:36:21;;;;;;;8.23;3.63;;;;;;;8.05;100.00;99907.13;5074681;28;20573;-67
2022/09/29 00:38:48;;;;;;;4.97;3.33;;;;;;;7.98;100.00;99900.06;5078458;28;20024;-66
2022/09/29 00:41:23;;;;;;;5.68;3.15;;;;;;;7.99;100.00;99907.06;5065354;28;20032;-66
2022/09/29 00:43:57;;;;;;;9.43;3.25;;;;;;;7.99;100.00;99906.16;5064505;28;20027;-67
2022/09/29 00:46:31;;;;;;;5.65;2.97;;;;;;;8.01;100.00;99904.47;5084024;28;20074;-67
2022/09/29 00:49:17;;;;;;;4.35;2.83;;;;;;;7.96;100.00;99898.28;5087232;28;20026;-67
2022/09/29 00:51:53;;;;;;;6.00;2.90;;;;;;;7.92;100.00;99899.97;5073424;28;20111;-67
2022/09/29 00:54:19;;;;;;;3.88;2.83;;;;;;;7.86;100.00;99899.91;5060439;28;20033;-67
2022/09/29 00:56:46;;;;;;;8.48;3.30;;;;;;;7.80;100.00;99897.22;5080623;28;20574;-67
2022/09/29 00:59:20;;;;;;;5.40;2.95;;;;;;;7.72;100.00;99898.00;5084398;28;20357;-67
2022/09/29 01:01:46;;;;;;;4.00;3.00;;;;;;;7.73;100.00;99899.75;5076084;28;20479;-66
2022/09/29 01:04:15;;;;;;;4.97;3.25;;;;;;;7.70;100.00;99904.06;5079646;28;20024;-67
2022/09/29 01:06:52;;;;;;;6.05;3.40;;;;;;;7.70;100.00;99902.31;5084345;28;20024;-66
2022/09/29 01:09:20;;;;;;;6.82;3.15;;;;;;;7.70;100.00;99896.22;5076961;28;20036;-67
2022/09/29 01:11:46;;;;;;;9.20;3.33;;;;;;;7.69;100.00;99903.22;5083276;28;20407;-67
2022/09/29 01:14:13;;;;;;;12.75;4.28;;;;;;;7.70;100.00;99899.69;5090429;28;20027;-67
2022/09/29 01:16:42;;;;;;;10.27;4.55;;;;;;;7.73;100.00;99899.75;5089082;28;20034;-67
2022/09/29 01:19:15;;;;;;;7.18;4.05;;;;;;;7.75;100.00;99894.53;5084665;28;20024;-66
2022/09/29 01:21:49;;;;;;;5.40;4.00;;;;;;;7.76;100.00;99893.69;5085392;28;20111;-67
2022/09/29 01:24:45;;;;;;;8.77;4.10;;;;;;;7.76;100.00;99889.31;5060929;28;20028;-67
2022/09/29 01:27:57;;;;;;;10.82;4.30;;;;;;;7.79;100.00;99892.84;5073555;28;20035;-67
2022/09/29 01:31:01;;;;;;;8.55;4.55;;;;;;;7.80;100.00;99894.59;5032265;28;20056;-67
2022/09/29 01:33:35;;;;;;;8.88;5.00;;;;;;;7.83;100.00;99889.41;5069408;28;20029;-67
2022/09/29 01:36:22;;;;;;;9.25;4.82;;;;;;;7.80;100.00;99894.59;5061583;28;20448;-67
2022/09/29 01:39:09;;;;;;;11.05;4.97;;;;;;;7.72;100.00;99898.00;5080616;28;20039;-67
2022/09/29 01:41:49;;;;;;;6.88;4.68;;;;;;;7.72;100.00;99897.13;5074426;28;20548;-67
2022/09/29 01:44:31;;;;;;;8.70;4.80;;;;;;;7.65;100.00;99896.19;5077542;28;20031;-67
2022/09/29 01:47:05;;;;;;;8.38;4.97;;;;;;;7.66;100.00;99897.91;5082024;28;20020;-67
2022/09/29 01:49:37;;;;;;;8.85;5.00;;;;;;;7.64;100.00;99904.88;5080726;28;20036;-67
2022/09/29 01:52:09;;;;;;;9.27;5.70;;;;;;;7.65;100.00;99903.13;5074445;28;20024;-67
2022/09/29 01:54:58;;;;;;;10.23;5.60;;;;;;;7.66;100.00;99897.91;5074151;28;20028;-67
2022/09/29 01:57:33;;;;;;;11.65;6.10;;;;;;;7.65;100.00;99900.50;5072340;28;20352;-67
2022/09/29 02:00:08;;;;;;;8.63;5.32;;;;;;;7.67;100.00;99904.91;5086515;28;20090;-67
2022/09/29 02:03:00;;;;;;;12.63;7.35;;;;;;;7.67;100.00;99904.91;5078159;28;20043;-67
2022/09/29 02:05:30;;;;;;;8.85;5.93;;;;;;;7.69;100.00;99900.59;5073310;28;20037;-67
2022/09/29 02:08:01;;;;;;;11.25;6.25;;;;;;;7.70;100.00;99902.31;5071762;28;20037;-67
2022/09/29 02:10:40;;;;;;;13.27;7.20;;;;;;;7.67;100.00;99899.69;5067182;28;20132;-67
2022/09/29 02:13:08;;;;;;;15.45;7.15;;;;;;;7.62;100.00;99898.72;5044337;28;20460;-67
2022/09/29 02:15:38;;;;;;;12.25;6.57;;;;;;;7.57;100.00;99903.91;5069072;28;20052;-67
2022/09/29 02:18:16;;;;;;;9.25;5.75;;;;;;;7.58;100.00;99904.78;5060205;28;20025;-67
2022/09/29 02:20:41;;;;;;;10.82;6.70;;;;;;;7.54;100.00;99900.38;5049531;28;20029;-67
2022/09/29 02:23:07;;;;;;;9.88;6.28;;;;;;;7.50;100.00;99899.47;5066860;28;20476;-67
2022/09/29 02:25:37;;;;;;;11.43;5.78;;;;;;;7.47;100.00;99895.91;5063080;28;20491;-67
2022/09/29 02:28:03;;;;;;;12.25;6.93;;;;;;;7.52;100.00;99902.97;5058734;28;20192;-67
2022/09/29 02:30:28;;;;;;;14.25;7.75;;;;;;;7.55;100.00;99900.38;5053012;28;20133;-67
2022/09/29 02:32:54;;;;;;;12.05;7.28;;;;;;;7.50;100.00;99898.56;5055228;28;20071;-67
2022/09/29 02:35:19;;;;;;;11.63;7.38;;;;;;;7.45;100.00;99902.84;5053148;28;20102;-67
2022/09/29 02:38:06;;;;;;;11.95;6.72;;;;;;;7.36;100.00;99898.38;5053244;28;20025;-67
2022/09/29 02:40:43;;;;;;;11.65;6.53;;;;;;;7.31;100.00;99900.94;5050622;28;20029;-67
2022/09/29 02:43:27;;;;;;;10.80;7.38;;;;;;;7.31;100.00;99900.03;5067823;28;20052;-67
2022/09/29 02:46:04;;;;;;;9.98;6.25;;;;;;;7.26;100.00;99897.38;5052856;28;20036;-66
2022/09/29 02:49:07;;;;;;;11.27;6.55;;;;;;;7.18;100.00;99894.63;5071406;28;20032;-67
2022/09/29 02:51:37;;;;;;;12.52;7.50;;;;;;;7.20;100.00;99897.28;5042297;28;20039;-67
2022/09/29 02:54:11;;;;;;;10.45;6.68;;;;;;;7.14;100.00;99902.44;5065808;28;20024;-67
2022/09/29 02:57:02;;;;;;;11.90;7.38;;;;;;;7.19;100.00;99895.50;5054237;28;20023;-67
2022/09/29 02:59:43;;;;;;;13.07;7.05;;;;;;;7.11;100.00;99902.34;5049223;28;20621;-67
2022/09/29 03:02:08;;;;;;;10.07;6.70;;;;;;;7.05;100.00;99903.16;5055169;28;20031;-67
2022/09/29 03:04:33;;;;;;;11.00;6.47;;;;;;;7.00;100.00;99903.09;5063528;28;20029;-67
2022/09/29 03:06:59;;;;;;;10.07;7.35;;;;;;;6.99;100.00;99908.31;5054571;28;20029;-67
2022/09/29 03:09:24;;;;;;;14.85;7.38;;;;;;;6.99;100.00;99906.56;5054499;28;20029;-67
2022/09/29 03:11:49;;;;;;;13.07;8.85;;;;;;;6.96;100.00;99911.75;5051023;28;20052;-67
2022/09/29 03:14:15;;;;;;;12.38;7.43;;;;;;;6.95;100.00;99907.34;5051012;28;20059;-67
2022/09/29 03:16:41;;;;;;;10.80;7.25;;;;;;;6.92;100.00;99907.31;5043131;28;20021;-67
2022/09/29 03:19:07;;;;;;;10.77;7.72;;;;;;;6.87;100.00;99912.44;5050071;28;20027;-67
2022/09/29 03:21:32;;;;;;;11.07;7.43;;;;;;;6.83;100.00;99917.63;5043727;28;20033;-67
2022/09/29 03:23:58;;;;;;;17.35;7.65;;;;;;;6.78;100.00;99914.03;5039743;28;20029;-67
2022/09/29 03:26:24;;;;;;;11.35;6.93;;;;;;;6.77;100.00;99920.13;5049975;28;20036;-67
2022/09/29 03:28:50;;;;;;;13.55;7.88;;;;;;;6.77;100.00;99913.19;5052166;28;20020;-67
2022/09/29 03:31:15;;;;;;;10.82;7.10;;;;;;;6.72;100.00;99914.81;5034024;28;20040;-67
2022/09/29 03:33:41;;;;;;;10.43;6.78;;;;;;;6.68;100.00;99913.88;5048313;28;20056;-67
2022/09/29 03:36:07;;;;;;;9.15;6.55;;;;;;;6.67;100.00;99922.56;5050785;28;20025;-67
2022/09/29 03:38:33;;;;;;;8.70;6.50;;;;;;;6.62;100.00;99920.72;5033403;28;20630;-67
2022/09/29 03:40:58;;;;;;;9.43;6.18;;;;;;;6.57;100.00;99923.28;5050316;28;20035;-67
2022/09/29 03:43:24;;;;;;;11.88;7.32;;;;;;;6.63;100.00;99920.75;5051932;28;20081;-66
2022/09/29 03:45:51;;;;;;;9.82;6.78;;;;;;;6.59;100.00;99932.00;5052686;28;20065;-67
2022/09/29 03:48:17;;;;;;;11.50;7.55;;;;;;;6.54;100.00;99920.63;5045559;28;20391;-67
2022/09/29 03:50:47;;;;;;;8.98;6.47;;;;;;;6.48;100.00;99933.56;5050687;28;20082;-66
2022/09/29 03:53:13;;;;;;;11.48;6.55;;;;;;;6.42;100.00;99926.50;5039157;28;20051;-67
2022/09/29 03:55:39;;;;;;;10.40;7.03;;;;;;;6.40;100.00;99929.09;5051497;28;20032;-67
2022/09/29 03:58:05;;;;;;;12.52;7.13;;;;;;;6.40;100.00;99930.78;5052690;28;20083;-66
2022/09/29 04:00:30;;;;;;;10.45;7.68;;;;;;;6.36;100.00;99934.19;5055385;28;20033;-67
2022/09/29 04:02:56;;;;;;;10.40;7.13;;;;;;;6.34;100.00;99928.97;5055148;28;20411;-67
2022/09/29 04:05:21;;;;;;;10.95;7.05;;;;;;;6.32;100.00;99930.69;5054133;28;20100;-67
2022/09/29 04:07:47;;;;;;;12.60;7.50;;;;;;;6.31;100.00;99928.91;5043666;28;20132;-68
2022/09/29 04:10:12;;;;;;;9.93;7.25;;;;;;;6.37;100.00;99930.75;5070500;28;20025;-67
2022/09/29 04:12:38;;;;;;;13.35;8.73;;;;;;;6.41;100.00;99935.19;5061499;28;20047;-67
2022/09/29 04:15:04;;;;;;;12.93;8.00;;;;;;;6.34;100.00;99936.78;5061677;28;20032;-67
2022/09/29 04:17:30;;;;;;;13.32;6.50;;;;;;;6.29;100.00;99935.81;5070774;28;20116;-67
2022/09/29 04:19:56;;;;;;;14.90;8.18;;;;;;;6.27;100.00;99941.88;5067511;28;20432;-67
2022/09/29 04:22:21;;;;;;;11.38;7.28;;;;;;;6.23;100.00;99936.59;5067069;28;20024;-67
2022/09/29 04:24:50;;;;;;;12.27;7.47;;;;;;;6.18;100.00;99937.34;5059832;28;20029;-67
2022/09/29 04:27:17;;;;;;;11.20;7.68;;;;;;;6.14;100.00;99935.53;5066573;28;20033;-66
2022/09/29 04:29:43;;;;;;;10.77;7.43;;;;;;;6.13;100.00;99936.38;5073235;28;20029;-67
2022/09/29 04:32:08;;;;;;;9.43;7.28;;;;;;;6.11;100.00;99941.56;5064724;28;20081;-68
2022/09/29 04:34:33;;;;;;;12.10;7.53;;;;;;;6.06;100.00;99954.56;5062286;28;20039;-67
2022/09/29 04:36:59;;;;;;;11.07;7.72;;;;;;;6.02;100.00;99950.13;5057201;28;20029;-66
2022/09/29 04:39:24;;;;;;;12.52;7.47;;;;;;;6.10;100.00;99946.78;5046260;28;20433;-67
2022/09/29 04:41:50;;;;;;;10.18;7.25;;;;;;;6.10;100.00;99949.38;5055752;28;20053;-68
2022/09/29 04:44:15;;;;;;;11.45;7.07;;;;;;;6.04;100.00;99955.38;5064811;28;20033;-67
2022/09/29 04:46:41;;;;;;;12.00;7.18;;;;;;;6.01;100.00;99952.66;5062751;28;20024;-67
2022/09/29 04:49:06;;;;;;;12.23;8.18;;;;;;;5.99;100.00;99960.47;5063001;28;20017;-66
2022/09/29 04:51:32;;;;;;;13.43;8.35;;;;;;;5.99;100.00;99963.09;5056322;28;20033;-66
2022/09/29 04:53:58;;;;;;;11.00;7.43;;;;;;;5.97;100.00;99964.78;5059847;28;20478;-66
2022/09/29 04:56:24;;;;;;;11.38;7.85;;;;;;;5.96;100.00;99973.44;5052105;28;20032;-66
2022/09/29 04:58:49;;;;;;;12.07;7.38;;;;;;;5.95;100.00;99971.69;5057247;28;20028;-67
2022/09/29 05:01:15;;;;;;;10.73;7.78;;;;;;;5.92;100.00;99976.84;5061654;28;20139;-66
2022/09/29 05:03:40;;;;;;;11.27;7.68;;;;;;;5.87;100.00;99976.75;5055864;28;20109;-66
2022/09/29 05:06:07;;;;;;;10.95;7.30;;;;;;;5.86;100.00;99971.47;5036040;28;20029;-66
2022/09/29 05:08:32;;;;;;;13.32;7.57;;;;;;;5.84;100.00;99976.66;5054745;28;20472;-66
2022/09/29 05:11:01;;;;;;;13.48;7.90;;;;;;;5.86;100.00;99987.13;5068330;28;20048;-67
2022/09/29 05:13:26;;;;;;;12.88;8.77;;;;;;;5.96;100.00;99986.50;5094135;28;20036;-67
2022/09/29 05:15:56;;;;;;;17.08;9.35;;;;;;;5.99;100.00;99990.94;5074788;28;20093;-67
2022/09/29 05:18:21;;;;;;;17.73;10.45;;;;;;;6.03;100.00;99984.94;5078632;28;20046;-67
2022/09/29 05:20:47;;;;;;;16.17;10.57;;;;;;;6.08;100.00;99989.41;5077711;28;20425;-65
2022/09/29 05:23:12;;;;;;;17.02;11.48;;;;;;;6.16;100.00;99992.19;5073712;28;20075;-65
2022/09/29 05:25:39;;;;;;;19.27;12.02;;;;;;;6.18;100.00;99990.47;5073372;28;20024;-68
2022/09/29 05:28:04;;;;;;;18.30;11.05;;;;;;;6.25;100.00;100001.94;5066575;28;20544;-65
2022/09/29 05:30:30;;;;;;;18.80;10.65;;;;;;;6.21;100.00;99998.38;5072654;28;20107;-66
2022/09/29 05:32:55;;;;;;;16.20;9.93;;;;;;;6.16;100.00;99992.19;5074765;28;20379;-66
2022/09/29 05:35:20;;;;;;;17.08;10.70;;;;;;;6.16;100.00;100002.63;5075400;28;20016;-67
2022/09/29 05:37:46;;;;;;;18.77;11.48;;;;;;;6.20;100.00;99998.34;5074233;28;20083;-66
2022/09/29 05:40:11;;;;;;;18.58;11.05;;;;;;;6.17;100.00;100008.72;5074528;28;20021;-67
2022/09/29 05:42:37;;;;;;;19.42;10.75;;;;;;;6.19;100.00;100012.25;5074151;28;20039;-67
2022/09/29 05:45:04;;;;;;;14.73;10.10;;;;;;;6.11;100.00;100012.09;5074217;28;20024;-67
2022/09/29 05:47:30;;;;;;;15.07;10.55;;;;;;;6.15;100.00;100016.53;5073678;28;20082;-67
2022/09/29 05:49:55;;;;;;;15.93;10.73;;;;;;;6.12;100.00;100007.75;5075285;28;20024;-67
2022/09/29 05:52:20;;;;;;;17.27;10.50;;;;;;;6.11;100.00;100013.84;5077131;28;20036;-67
2022/09/29 05:54:49;;;;;;;18.05;10.60;;;;;;;6.16;100.00;100017.41;5074265;28;20040;-67
2022/09/29 05:57:15;;;;;;;16.42;11.15;;;;;;;6.18;100.00;100016.59;5074334;28;20469;-67
2022/09/29 05:59:40;;;;;;;15.52;10.75;;;;;;;6.18;100.00;100015.72;5074535;28;20028;-68
2022/09/29 06:02:06;;;;;;;16.42;10.95;;;;;;;6.12;100.00;100015.56;5065957;28;20032;-68
2022/09/29 06:04:32;;;;;;;15.88;10.88;;;;;;;6.14;100.00;100014.75;5081186;28;20028;-67
2022/09/29 06:06:57;;;;;;;19.00;11.18;;;;;;;6.15;100.00;100010.44;5074300;28;20028;-68
2022/09/29 06:09:23;;;;;;;20.63;12.25;;;;;;;6.24;100.00;100011.50;5076690;28;20023;-68
2022/09/29 06:11:48;;;;;;;18.17;11.75;;;;;;;6.24;100.00;100016.72;5073203;28;20046;-67
2022/09/29 06:14:13;;;;;;;20.52;12.32;;;;;;;6.25;100.00;100017.59;5073542;28;20365;-66
2022/09/29 06:16:40;;;;;;;16.90;11.98;;;;;;;6.26;100.00;100019.38;5071197;28;20020;-67
2022/09/29 06:19:05;;;;;;;21.33;11.57;;;;;;;6.26;100.00;100021.97;5070674;28;20020;-67
2022/09/29 06:21:33;;;;;;;17.75;12.00;;;;;;;6.28;100.00;100024.63;5073689;28;20028;-68
2022/09/29 06:23:58;;;;;;;21.17;11.55;;;;;;;6.31;100.00;100025.56;5072616;28;20472;-67
2022/09/29 06:26:25;;;;;;;17.75;11.73;;;;;;;6.37;100.00;100027.44;5072270;28;20099;-67
2022/09/29 06:28:52;;;;;;;25.83;12.43;;;;;;;6.37;100.00;100033.53;5072133;28;20024;-66
2022/09/29 06:31:21;;;;;;;18.40;12.80;;;;;;;6.42;100.00;100031.03;5073598;28;20469;-67
2022/09/29 06:33:46;;;;;;;23.60;13.07;;;;;;;6.48;100.00;100030.25;5072012;28;20349;-67
2022/09/29 06:39:00;;;;;;;21.13;14.15;;;;;;;6.60;100.00;100029.63;5070985;28;20495;-65
2022/09/29 06:41:27;;;;;;;19.95;14.30;;;;;;;6.65;100.00;100035.84;5072475;28;20051;-65
2022/09/29 06:43:53;;;;;;;20.45;14.55;;;;;;;6.68;100.00;100038.50;5073680;28;20033;-65
2022/09/29 06:46:18;;;;;;;19.77;13.93;;;;;;;6.70;100.00;100048.13;5072478;28;20109;-65
2022/09/29 06:48:44;;;;;;;28.45;14.32;;;;;;;6.71;100.00;100044.66;5073533;28;20020;-66
2022/09/29 06:51:09;;;;;;;23.63;13.73;;;;;;;6.73;100.00;100048.19;5073246;28;20067;-66
2022/09/29 06:53:35;;;;;;;19.25;13.48;;;;;;;6.75;100.00;100049.13;5072287;28;20032;-66
2022/09/29 06:56:01;;;;;;;26.98;13.40;;;;;;;6.80;100.00;100050.94;5072831;28;20032;-66
2022/09/29 06:58:27;;;;;;;21.17;14.48;;;;;;;6.84;100.00;100056.25;5073221;28;20020;-66
2022/09/29 07:00:54;;;;;;;24.45;15.13;;;;;;;6.89;100.00;100057.22;5062019;28;20383;-65
2022/09/29 07:03:19;;;;;;;26.65;16.45;;;;;;;6.99;100.00;100060.00;5066376;28;20411;-66
2022/09/29 07:05:45;;;;;;;24.45;16.27;;;;;;;7.03;100.00;100060.06;5055257;28;20021;-66
2022/09/29 07:08:10;;;;;;;21.58;15.30;;;;;;;7.08;100.00;100066.28;5073559;28;20036;-65
2022/09/29 07:10:36;;;;;;;24.80;15.27;;;;;;;7.13;100.00;100062.88;5072529;28;20102;-65
2022/09/29 07:13:01;;;;;;;23.77;15.95;;;;;;;7.16;100.00;100074.28;5072223;28;20020;-65
2022/09/29 07:15:30;;;;;;;24.08;16.75;;;;;;;7.21;100.00;100061.25;5073162;28;20456;-66
2022/09/29 07:17:57;;;;;;;23.85;15.57;;;;;;;7.26;100.00;100072.69;5073169;28;20069;-66
2022/09/29 07:20:24;;;;;;;26.15;16.58;;;;;;;7.30;100.00;100074.50;5072760;28;20091;-65
2022/09/29 07:22:49;;;;;;;24.58;16.58;;;;;;;7.36;100.00;100073.72;5072969;28;20521;-65
2022/09/29 07:25:15;;;;;;;26.23;17.10;;;;;;;7.39;100.00;100079.91;5054780;28;20025;-65
2022/09/29 07:27:41;;;;;;;21.95;15.45;;;;;;;7.44;100.00;100074.75;5072317;28;20041;-65
2022/09/29 07:30:07;;;;;;;25.33;16.80;;;;;;;7.48;100.00;100080.91;5073258;28;20025;-65
2022/09/29 07:32:32;;;;;;;25.50;16.90;;;;;;;7.54;100.00;100081.91;5072766;28;20031;-66
2022/09/29 07:34:58;;;;;;;27.33;17.05;;;;;;;7.59;100.00;100082.84;5072737;28;20021;-66
2022/09/29 07:37:24;;;;;;;25.67;17.08;;;;;;;7.66;100.00;100081.19;5072195;28;20379;-66
2022/09/29 07:39:53;;;;;;;28.02;18.60;;;;;;;7.72;100.00;100086.53;5071065;28;20032;-66
2022/09/29 07:42:20;;;;;;;28.52;18.20;;;;;;;7.76;100.00;100092.72;5071493;28;20036;-66
2022/09/29 07:44:46;;;;;;;29.02;17.30;;;;;;;7.83;100.00;100093.69;5054543;28;20380;-66
2022/09/29 07:47:12;;;;;;;24.33;17.45;;;;;;;7.87;100.00;100090.28;5072212;28;20025;-66
2022/09/29 07:49:38;;;;;;;24.98;17.80;;;;;;;7.90;100.00;100099.03;5072362;28;20038;-66
2022/09/29 07:52:03;;;;;;;20.67;15.13;;;;;;;7.93;100.00;100098.22;5072070;28;20050;-66
2022/09/29 07:54:30;;;;;;;26.98;18.48;;;;;;;7.98;100.00;100104.41;5072214;28;20032;-66
2022/09/29 07:56:55;;;;;;;24.75;17.75;;;;;;;8.03;100.00;100104.47;5072642;28;20464;-66
2022/09/29 07:59:21;;;;;;;28.48;17.63;;;;;;;8.08;100.00;100110.66;5072165;28;20036;-66
2022/09/29 08:01:46;;;;;;;24.70;17.60;;;;;;;8.13;100.00;100114.22;5071860;28;20025;-66
2022/09/29 08:04:12;;;;;;;25.42;18.15;;;;;;;8.18;100.00;100117.81;5054263;28;20508;-66
2022/09/29 08:06:38;;;;;;;22.90;16.08;;;;;;;8.25;100.00;100119.66;5072618;28;20465;-67
2022/09/29 08:09:04;;;;;;;18.33;13.65;;;;;;;8.33;100.00;100122.38;5072422;28;20029;-65
2022/09/29 08:11:30;;;;;;;22.65;16.98;;;;;;;8.39;100.00;100118.97;5072082;28;20055;-64
2022/09/29 08:13:55;;;;;;;24.35;16.55;;;;;;;8.43;100.00;100126.88;5071499;28;20056;-64
2022/09/29 08:16:21;;;;;;;24.45;16.35;;;;;;;8.50;100.00;100127.00;5072211;28;20123;-65
2022/09/29 08:18:47;;;;;;;23.63;15.75;;;;;;;8.55;100.00;100130.56;5072188;28;20052;-64
2022/09/29 08:21:14;;;;;;;22.67;15.30;;;;;;;8.63;100.00;100136.81;5072264;28;20023;-64
2022/09/29 08:23:41;;;;;;;22.02;16.10;;;;;;;8.71;100.00;100135.16;5072374;28;20672;-65
2022/09/29 08:26:09;;;;;;;21.92;15.82;;;;;;;8.78;100.00;100146.59;5071272;28;20025;-66
2022/09/29 08:28:35;;;;;;;22.13;15.32;;;;;;;8.85;100.00;100145.81;5068420;28;20099;-68
2022/09/29 08:31:09;;;;;;;21.27;16.33;;;;;;;8.97;100.00;100147.72;5070328;28;20444;-68
2022/09/29 08:33:35;;;;;;;21.25;14.25;;;;;;;9.10;100.00;100151.34;5071393;28;20345;-66
2022/09/29 08:36:04;;;;;;;24.00;14.57;;;;;;;9.22;100.00;100163.72;5071166;28;20082;-66
2022/09/29 08:38:30;;;;;;;19.77;14.10;;;;;;;9.33;100.00;100169.97;5070389;28;20029;-66
2022/09/29 08:41:01;;;;;;;17.35;13.70;;;;;;;9.44;100.00;100165.72;5071226;28;20039;-66
2022/09/29 08:43:31;;;;;;;19.90;13.60;;;;;;;9.58;100.00;100176.38;5070902;28;20040;-66
2022/09/29 08:46:01;;;;;;;18.35;13.13;;;;;;;9.71;100.00;100180.00;5068842;28;20028;-68
2022/09/29 08:48:30;;;;;;;16.52;12.90;;;;;;;9.87;100.00;100180.13;5071074;28;20491;-66
2022/09/29 08:51:03;;;;;;;13.00;11.60;;;;;;;10.07;100.00;100183.78;5071652;28;20115;-67
2022/09/29 08:53:37;;;;;;;14.82;11.60;;;;;;;10.24;100.00;100185.66;5074917;28;20031;-67
2022/09/29 08:56:05;;;;;;;16.08;11.13;;;;;;;10.49;100.00;100191.16;5074600;28;20096;-67
2022/09/29 08:58:32;;;;;;;14.00;10.70;;;;;;;10.73;100.00;100191.28;5074591;28;20032;-66
2022/09/29 09:01:28;;;;;;;15.38;8.65;;;;;;;10.95;100.00;100192.25;5074266;28;20074;-66
2022/09/29 09:04:35;;;;;;;11.07;7.63;;;;;;;11.17;100.00;100191.47;5074463;28;20031;-66
2022/09/29 09:07:24;;;;;;;12.38;8.82;;;;;;;11.37;100.00;100200.31;5046744;28;20111;-66
2022/09/29 09:10:01;;;;;;;8.30;6.93;;;;;;;11.54;100.00;100199.47;5075298;28;20035;-66
2022/09/29 09:12:48;;;;;;;10.77;7.50;;;;;;;11.77;100.00;100195.16;5052531;28;20112;-66
2022/09/29 09:15:35;;;;;;;9.25;6.80;;;;;;;12.00;100.00;100190.78;5051966;28;20032;-66
2022/09/29 09:18:08;;;;;;;10.75;6.05;;;;;;;12.20;100.00;100198.69;5054634;28;20117;-66
2022/09/29 09:20:35;;;;;;;;;;;;;;;12.38;100.00;100198.66;5035540;28;20025;-66
2022/09/29 09:23:28;;;;;;;9.80;5.90;;;;;;;12.56;100.00;100196.88;5050653;28;19921;-66
2022/09/29 09:26:00;;;;;;;8.38;4.97;;;;;;;12.75;100.00;100198.59;5054188;28;20031;-67
2022/09/29 09:28:56;;;;;;;10.38;4.93;;;;;;;12.87;100.00;100197.66;5054062;28;20025;-67
2022/09/29 09:32:00;;;;;;;12.45;5.10;;;;;;;13.10;100.00;100200.25;5054086;28;20033;-66
2022/09/29 09:34:38;;;;;;;;;;;;;;;13.36;100.00;100206.31;5051946;28;20033;-66
2022/09/29 09:37:12;;;;;;;6.57;3.15;;;;;;;13.52;100.00;100204.47;5053577;28;20238;-67
2022/09/29 09:39:56;;;;;;;3.53;2.83;;;;;;;13.77;100.00;100214.00;5051508;28;20021;-67
2022/09/29 09:42:29;;;;;;;3.97;3.28;;;;;;;13.95;100.00;100207.69;5053159;28;20530;-66
2022/09/29 09:45:38;;;;;;;4.90;2.67;;;;;;;14.23;100.00;100214.53;5054207;28;20048;-67
2022/09/29 09:48:09;;;;;;;2.45;1.90;;;;;;;14.47;100.00;100211.69;5022035;28;20477;-67
2022/09/29 09:50:38;;;;;;;2.85;1.23;;;;;;;14.70;100.00;100207.94;5054007;28;20036;-67
2022/09/29 09:53:10;;;;;;;2.95;1.58;;;;;;;14.92;100.00;100218.28;5054449;28;20052;-67
2022/09/29 09:55:36;;;;;;;3.30;1.75;;;;;;;14.94;100.00;100219.16;5054640;28;20103;-67
2022/09/29 09:58:23;;;;;;;3.05;1.63;;;;;;;15.11;100.00;100219.84;5054110;28;20508;-67
2022/09/29 10:00:57;;;;;;;5.32;1.67;;;;;;;15.24;100.00;100215.25;5054579;28;20056;-66
2022/09/29 10:03:22;;;;;;;;;;;;;;;15.43;100.00;100225.63;5052530;28;20039;-67
2022/09/29 10:05:48;;;;;;;2.90;2.00;;;;;;;15.47;100.00;100217.59;5053833;28;20424;-67
2022/09/29 10:08:26;;;;;;;2.30;1.40;;;;;;;15.57;100.00;100225.44;5053735;28;20035;-67
2022/09/29 10:10:53;;;;;;;4.25;1.10;;;;;;;15.71;100.00;100214.63;5061865;28;20048;-67
2022/09/29 10:13:18;;;;;;;4.60;1.70;;;;;;;15.90;100.00;100220.56;5074082;28;20086;-67
2022/09/29 10:16:12;;;;;;;4.50;2.00;;;;;;;16.04;97.87;100217.69;5074066;28;20028;-67
2022/09/29 10:18:51;;;;;;;5.68;1.80;;;;;;;16.06;100.00;100221.19;5075504;28;20411;-67
2022/09/29 10:21:27;;;;;;;1.75;1.50;;;;;;;16.24;100.00;100220.91;5074067;28;20086;-67
2022/09/29 10:23:58;;;;;;;2.78;1.55;;;;;;;16.41;100.00;100220.59;5074111;28;20024;-67
2022/09/29 10:26:26;;;;;;;2.00;1.60;;;;;;;16.48;98.17;100224.91;5073781;28;20051;-67
2022/09/29 10:28:58;;;;;;;3.67;1.50;;;;;;;16.75;100.00;100230.59;5074104;28;20111;-68
2022/09/29 10:31:35;;;;;;;1.90;1.48;;;;;;;16.97;94.85;100233.78;5073505;28;20032;-67
2022/09/29 10:34:16;;;;;;;2.25;1.80;;;;;;;17.14;90.37;100230.75;5075257;28;20093;-68
2022/09/29 10:36:51;;;;;;;4.93;1.50;;;;;;;17.16;100.00;100228.97;5053759;28;20107;-67
2022/09/29 10:39:39;;;;;;;4.00;1.77;;;;;;;17.06;99.40;100227.38;5073590;28;20071;-67
2022/09/29 10:42:30;;;;;;;7.70;2.72;;;;;;;17.26;96.10;100232.28;5073078;28;20033;-68
2022/09/29 10:45:24;;;;;;;3.10;2.10;;;;;;;17.06;98.90;100243.34;5072042;28;20081;-66
2022/09/29 10:47:56;;;;;;;5.18;1.90;;;;;;;17.44;93.71;100238.13;5070993;28;20033;-66
2022/09/29 10:50:22;;;;;;;3.28;1.67;;;;;;;17.72;88.43;100242.88;5071337;28;20089;-67
2022/09/29 10:52:57;;;;;;;1.73;1.63;;;;;;;17.48;88.59;100248.66;5071617;28;20535;-67
2022/09/29 10:55:32;;;;;;;4.82;1.65;;;;;;;17.85;88.44;100244.31;5072209;28;20108;-67
2022/09/29 10:58:03;;;;;;;3.60;1.23;;;;;;;18.13;77.20;100249.88;5071691;28;20526;-67
2022/09/29 11:00:33;;;;;;;1.20;1.02;;;;;;;18.39;69.65;100247.50;5071852;28;20445;-67
2022/09/29 11:03:21;;;;;;;3.67;1.50;;;;;;;18.55;77.64;100246.19;5071900;28;20099;-66
2022/09/29 11:05:54;;;;;;;1.95;1.60;;;;;;;18.75;69.42;100248.34;5072220;28;20034;-66
2022/09/29 11:08:24;;;;;;;;;;;;;;;18.67;66.25;100245.00;5072339;28;20029;-67
2022/09/29 11:11:05;;;;;;;1.48;1.33;;;;;;;18.65;65.32;100254.81;5068329;28;19968;-67
2022/09/29 11:13:39;;;;;;;3.83;1.40;;;;;;;18.74;61.53;100249.25;5053246;28;20036;-66
2022/09/29 11:16:16;;;;;;;1.42;1.20;;;;;;;18.82;73.60;100260.56;5053646;28;20082;-66
2022/09/29 11:18:45;;;;;;;3.33;1.30;;;;;;;18.78;69.05;100260.69;5068010;28;20024;-67
2022/09/29 11:21:20;;;;;;;2.33;1.20;;;;;;;19.26;70.13;100262.06;5073132;28;20098;-67
2022/09/29 11:23:54;;;;;;;1.42;1.30;;;;;;;19.58;64.38;100265.59;5058885;28;20055;-67
2022/09/29 11:26:32;;;;;;;1.35;1.20;;;;;;;19.70;65.21;100266.09;5051997;28;20025;-67
2022/09/29 11:29:19;;;;;;;1.33;1.00;;;;;;;19.51;67.01;100271.09;5053078;28;20033;-67
2022/09/29 11:32:20;;;;;;;4.65;0.98;;;;;;;19.41;65.12;100269.66;5052043;28;20056;-67
2022/09/29 11:35:04;;;;;;;2.38;1.05;;;;;;;18.62;65.99;100269.09;5050765;28;20051;-66
2022/09/29 11:37:52;;;;;;;2.28;1.33;;;;;;;18.73;58.87;100271.47;5067488;28;20028;-67
2022/09/29 11:40:50;;;;;;;2.90;1.20;;;;;;;18.66;65.05;100275.22;5060957;28;20071;-67
2022/09/29 11:43:38;;;;;;;3.08;1.20;;;;;;;18.72;60.17;100280.41;5070043;28;20434;-66